createdAt,value
2018-11-23T00:01:08.672Z,100857
2018-11-23T00:03:38.247Z,100860
2018-11-23T00:06:07.080Z,100864
2018-11-23T00:08:35.915Z,100871
2018-11-23T00:11:04.750Z,100870
2018-11-23T00:13:34.322Z,100867
2018-11-23T00:16:03.892Z,100869
2018-11-23T00:18:32.724Z,100866
2018-11-23T00:21:01.576Z,100856
2018-11-23T00:23:30.420Z,100869
2018-11-23T00:25:59.255Z,100870
2018-11-23T00:28:28.113Z,100870
2018-11-23T00:30:56.948Z,100870
2018-11-23T00:33:25.781Z,100875
2018-11-23T00:35:54.657Z,100874
2018-11-23T00:38:23.464Z,100883
2018-11-23T00:40:52.292Z,100869
2018-11-23T00:43:21.133Z,100880
2018-11-23T00:45:50.706Z,100886
2018-11-23T00:48:19.536Z,100878
2018-11-23T00:50:48.385Z,100883
2018-11-23T00:53:17.225Z,100881
2018-11-23T00:55:46.070Z,100888
2018-11-23T00:58:14.900Z,100883
2018-11-23T01:00:43.753Z,100889
2018-11-23T01:03:12.586Z,100890
2018-11-23T01:05:41.410Z,100890
2018-11-23T01:08:10.243Z,100886
2018-11-23T01:10:39.813Z,100884
2018-11-23T01:13:08.644Z,100899
2018-11-23T01:15:37.482Z,100897
2018-11-23T01:18:08.177Z,100895
2018-11-23T01:20:36.994Z,100891
2018-11-23T01:23:06.568Z,100897
2018-11-23T01:25:35.400Z,100898
2018-11-23T01:28:04.242Z,100903
2018-11-23T01:30:33.064Z,100895
2018-11-23T01:33:02.636Z,100892
2018-11-23T01:35:31.460Z,100899
2018-11-23T01:38:00.335Z,100913
2018-11-23T01:40:29.184Z,100904
2018-11-23T01:42:58.007Z,100902
2018-11-23T01:45:26.885Z,100896
2018-11-23T01:47:55.683Z,100899
2018-11-23T01:50:24.521Z,100903
2018-11-23T01:52:53.354Z,100897
2018-11-23T01:55:22.184Z,100900
2018-11-23T01:57:51.014Z,100898
2018-11-23T02:00:19.838Z,100894
2018-11-23T02:02:48.667Z,100892
2018-11-23T02:05:17.494Z,100890
2018-11-23T02:07:46.323Z,100885
2018-11-23T02:10:15.168Z,100892
2018-11-23T02:12:44.003Z,100890
2018-11-23T02:15:13.584Z,100891
2018-11-23T02:17:42.416Z,100888
2018-11-23T02:20:11.244Z,100890
2018-11-23T02:22:40.075Z,100883
2018-11-23T02:25:08.895Z,100881
2018-11-23T02:27:37.724Z,100879
2018-11-23T02:30:06.550Z,100882
2018-11-23T02:32:36.135Z,100878
2018-11-23T02:35:04.997Z,100873
2018-11-23T02:37:33.828Z,100868
2018-11-23T02:40:03.419Z,100872
2018-11-23T02:42:32.236Z,100862
2018-11-23T02:45:01.083Z,100862
2018-11-23T02:47:30.656Z,100866
2018-11-23T02:49:59.480Z,100867
2018-11-23T02:52:28.299Z,100875
2018-11-23T02:54:57.138Z,100874
2018-11-23T02:57:25.977Z,100871
2018-11-23T02:59:55.583Z,100881
2018-11-23T03:02:24.411Z,100875
2018-11-23T03:04:53.243Z,100877
2018-11-23T03:07:22.079Z,100869
2018-11-23T03:09:50.968Z,100871
2018-11-23T03:12:19.741Z,100870
2018-11-23T03:14:48.568Z,100874
2018-11-23T03:17:17.403Z,100870
2018-11-23T03:19:46.250Z,100871
2018-11-23T03:22:15.080Z,100870
2018-11-23T03:24:44.650Z,100876
2018-11-23T03:27:13.479Z,100878
2018-11-23T03:29:42.323Z,100873
2018-11-23T03:32:11.152Z,100873
2018-11-23T03:34:39.999Z,100861
2018-11-23T03:37:08.812Z,100864
2018-11-23T03:39:37.650Z,100874
2018-11-23T03:42:06.540Z,100865
2018-11-23T03:44:36.082Z,100863
2018-11-23T03:47:04.909Z,100865
2018-11-23T03:49:33.748Z,100863
2018-11-23T03:52:02.576Z,100854
2018-11-23T03:54:31.412Z,100856
2018-11-23T03:57:00.251Z,100859
2018-11-23T03:59:29.817Z,100858
2018-11-23T04:01:58.654Z,100868
2018-11-23T04:04:27.495Z,100870
2018-11-23T04:06:56.334Z,100863
2018-11-23T04:09:25.220Z,100863
2018-11-23T04:11:54.002Z,100846
2018-11-23T04:14:23.584Z,100852
2018-11-23T04:16:52.434Z,100847
2018-11-23T04:19:21.266Z,100850
2018-11-23T04:21:50.112Z,100852
2018-11-23T04:24:18.940Z,100845
2018-11-23T04:26:47.767Z,100849
2018-11-23T04:29:16.604Z,100845
2018-11-23T04:31:45.435Z,100850
2018-11-23T04:34:14.276Z,100853
2018-11-23T04:36:43.109Z,100839
2018-11-23T04:39:11.933Z,100844
2018-11-23T04:41:46.276Z,100832
2018-11-23T04:44:09.621Z,100845
2018-11-23T04:46:38.444Z,100848
2018-11-23T04:49:07.279Z,100856
2018-11-23T04:51:36.139Z,100860
2018-11-23T04:54:04.970Z,100844
2018-11-23T04:56:33.793Z,100851
2018-11-23T04:59:02.623Z,100847
2018-11-23T05:01:31.452Z,100846
2018-11-23T05:04:00.283Z,100847
2018-11-23T05:06:29.107Z,100847
2018-11-23T05:08:57.931Z,100852
2018-11-23T05:11:26.763Z,100845
2018-11-23T05:13:55.603Z,100844
2018-11-23T05:16:24.437Z,100843
2018-11-23T05:18:53.275Z,100836
2018-11-23T05:21:22.100Z,100839
2018-11-23T05:23:50.942Z,100831
2018-11-23T05:26:19.777Z,100847
2018-11-23T05:28:48.613Z,100837
2018-11-23T05:31:17.447Z,100830
2018-11-23T05:33:47.028Z,100828
2018-11-23T05:36:15.872Z,100832
2018-11-23T05:38:44.699Z,100834
2018-11-23T05:41:13.534Z,100829
2018-11-23T05:43:43.097Z,100822
2018-11-23T05:46:11.924Z,100827
2018-11-23T05:48:41.505Z,100823
2018-11-23T05:51:10.367Z,100826
2018-11-23T05:53:39.197Z,100823
2018-11-23T05:56:08.778Z,100826
2018-11-23T05:58:37.605Z,100815
2018-11-23T06:01:07.193Z,100832
2018-11-23T06:03:36.021Z,100832
2018-11-23T06:06:04.856Z,100824
2018-11-23T06:08:33.675Z,100827
2018-11-23T06:11:03.256Z,100828
2018-11-23T06:13:32.079Z,100834
2018-11-23T06:16:00.925Z,100843
2018-11-23T06:18:29.756Z,100848
2018-11-23T06:20:59.337Z,100848
2018-11-23T06:23:28.202Z,100849
2018-11-23T06:25:56.995Z,100846
2018-11-23T06:28:25.823Z,100837
2018-11-23T06:30:54.649Z,100824
2018-11-23T06:33:24.331Z,100824
2018-11-23T06:35:53.169Z,100821
2018-11-23T06:38:22.001Z,100833
2018-11-23T06:40:50.832Z,100838
2018-11-23T06:43:19.668Z,100849
2018-11-23T06:45:49.241Z,100853
2018-11-23T06:48:18.071Z,100849
2018-11-23T06:50:46.931Z,100844
2018-11-23T06:53:15.762Z,100838
2018-11-23T06:55:44.592Z,100845
2018-11-23T06:58:13.420Z,100834
2018-11-23T07:00:42.259Z,100834
2018-11-23T07:03:11.204Z,100844
2018-11-23T07:05:40.775Z,100844
2018-11-23T07:08:09.897Z,100845
2018-11-23T07:10:38.746Z,100849
2018-11-23T07:13:07.583Z,100843
2018-11-23T07:15:37.196Z,100847
2018-11-23T07:18:06.757Z,100847
2018-11-23T07:20:35.592Z,100836
2018-11-23T07:23:04.441Z,100839
2018-11-23T07:25:33.268Z,100834
2018-11-23T07:28:02.100Z,100850
2018-11-23T07:30:30.948Z,100836
2018-11-23T07:32:59.797Z,100843
2018-11-23T07:35:28.647Z,100850
2018-11-23T07:37:57.501Z,100852
2018-11-23T07:40:44.164Z,100855
2018-11-23T07:43:13.003Z,100845
2018-11-23T07:45:41.846Z,100851
2018-11-23T07:48:10.685Z,100850
2018-11-23T07:50:39.523Z,100851
2018-11-23T07:53:08.373Z,100856
2018-11-23T07:55:37.951Z,100853
2018-11-23T07:58:06.797Z,100851
2018-11-23T08:00:35.632Z,100860
2018-11-23T08:03:04.466Z,100858
2018-11-23T08:05:34.041Z,100850
2018-11-23T08:08:02.894Z,100846
2018-11-23T08:10:31.141Z,100846
2018-11-23T08:12:59.993Z,100847
2018-11-23T08:15:28.835Z,100838
2018-11-23T08:17:57.682Z,100843
2018-11-23T08:20:26.530Z,100850
2018-11-23T08:22:55.358Z,100845
2018-11-23T08:25:24.228Z,100851
2018-11-23T08:27:53.070Z,100845
2018-11-23T08:30:21.921Z,100839
2018-11-23T08:32:51.358Z,100834
2018-11-23T08:35:20.196Z,100825
2018-11-23T08:37:49.036Z,100826
2018-11-23T08:40:17.867Z,100837
2018-11-23T08:42:46.697Z,100830
2018-11-23T08:45:16.283Z,100832
2018-11-23T08:47:45.133Z,100833
2018-11-23T08:50:13.978Z,100833
2018-11-23T08:52:42.826Z,100839
2018-11-23T08:55:11.657Z,100829
2018-11-23T08:57:40.509Z,100833
2018-11-23T09:00:09.348Z,100847
2018-11-23T09:02:38.928Z,100834
2018-11-23T09:05:07.769Z,100825
2018-11-23T09:07:36.601Z,100819
2018-11-23T09:10:05.428Z,100827
2018-11-23T09:12:34.295Z,100823
2018-11-23T09:15:03.135Z,100816
2018-11-23T09:17:31.980Z,100808
2018-11-23T09:20:01.558Z,100813
2018-11-23T09:22:30.395Z,100817
2018-11-23T09:24:59.234Z,100809
2018-11-23T09:27:28.075Z,100808
2018-11-23T09:29:56.925Z,100802
2018-11-23T09:32:25.764Z,100800
2018-11-23T09:34:54.605Z,100789
2018-11-23T09:37:23.444Z,100784
2018-11-23T09:39:52.274Z,100783
2018-11-23T09:42:21.851Z,100786
2018-11-23T09:44:50.690Z,100786
2018-11-23T09:47:20.273Z,100783
2018-11-23T09:49:49.124Z,100780
2018-11-23T09:52:17.962Z,100771
2018-11-23T09:54:46.795Z,100767
2018-11-23T09:57:15.637Z,100767
2018-11-23T09:59:44.472Z,100767
2018-11-23T10:02:13.298Z,100767
2018-11-23T10:04:42.128Z,100762
2018-11-23T10:07:10.968Z,100760
2018-11-23T10:09:39.809Z,100758
2018-11-23T10:12:08.014Z,100762
2018-11-23T10:14:36.855Z,100759
2018-11-23T10:17:05.695Z,100750
2018-11-23T10:19:34.530Z,100750
2018-11-23T10:22:03.379Z,100755
2018-11-23T10:24:32.224Z,100752
2018-11-23T10:27:01.053Z,100753
2018-11-23T10:29:29.889Z,100746
2018-11-23T10:31:59.473Z,100741
2018-11-23T10:34:28.303Z,100746
2018-11-23T10:36:57.150Z,100738
2018-11-23T10:39:26.018Z,100736
2018-11-23T10:41:54.820Z,100733
2018-11-23T10:44:23.652Z,100731
2018-11-23T10:46:52.477Z,100727
2018-11-23T10:49:21.328Z,100728
2018-11-23T10:51:50.894Z,100725
2018-11-23T10:54:19.738Z,100721
2018-11-23T10:56:48.613Z,100717
2018-11-23T10:59:17.431Z,100713
2018-11-23T11:01:46.269Z,100714
2018-11-23T11:04:15.108Z,100693
2018-11-23T11:06:43.942Z,100710
2018-11-23T11:09:12.763Z,100709
2018-11-23T11:11:41.607Z,100697
2018-11-23T11:14:10.439Z,100690
2018-11-23T11:16:41.924Z,100687
2018-11-23T11:19:10.780Z,100680
2018-11-23T11:21:39.616Z,100670
2018-11-23T11:24:08.470Z,100665
2018-11-23T11:26:37.305Z,100673
2018-11-23T11:29:06.144Z,100683
2018-11-23T11:31:34.994Z,100672
2018-11-23T11:34:03.849Z,100659
2018-11-23T11:36:32.697Z,100658
2018-11-23T11:39:01.554Z,100656
2018-11-23T11:41:30.403Z,100664
2018-11-23T11:43:59.254Z,100648
2018-11-23T11:46:28.111Z,100646
2018-11-23T11:48:56.937Z,100653
2018-11-23T11:51:26.523Z,100646
2018-11-23T11:53:55.374Z,100642
2018-11-23T11:56:24.213Z,100627
2018-11-23T11:58:53.784Z,100623
2018-11-23T12:01:22.613Z,100621
2018-11-23T12:03:51.469Z,100621
2018-11-23T12:06:20.299Z,100618
2018-11-23T12:08:49.886Z,100604
2018-11-23T12:11:18.777Z,100601
2018-11-23T12:13:47.593Z,100590
2018-11-23T12:16:16.446Z,100594
2018-11-23T12:18:45.282Z,100592
2018-11-23T12:21:14.119Z,100578
2018-11-23T12:23:42.961Z,100568
2018-11-23T12:26:11.798Z,100571
2018-11-23T12:28:40.656Z,100575
2018-11-23T12:31:09.498Z,100564
2018-11-23T12:33:38.350Z,100567
2018-11-23T12:36:07.198Z,100575
2018-11-23T12:38:36.036Z,100575
2018-11-23T12:41:04.873Z,100571
2018-11-23T12:43:33.757Z,100571
2018-11-23T12:46:02.599Z,100571
2018-11-23T12:48:31.446Z,100570
2018-11-23T12:51:00.290Z,100566
2018-11-23T12:53:29.124Z,100560
2018-11-23T12:55:57.972Z,100555
2018-11-23T12:58:27.555Z,100544
2018-11-23T13:00:56.388Z,100546
2018-11-23T13:03:25.226Z,100539
2018-11-23T13:05:54.071Z,100538
2018-11-23T13:08:23.685Z,100532
2018-11-23T13:10:52.536Z,100532
2018-11-23T13:13:21.395Z,100545
2018-11-23T13:15:50.232Z,100547
2018-11-23T13:18:19.067Z,100545
2018-11-23T13:20:47.906Z,100540
2018-11-23T13:23:16.749Z,100547
2018-11-23T13:25:45.593Z,100544
2018-11-23T13:28:14.437Z,100529
2018-11-23T13:30:43.285Z,100548
2018-11-23T13:33:12.857Z,100542
2018-11-23T13:35:41.694Z,100539
2018-11-23T13:38:09.761Z,100541
2018-11-23T13:40:38.605Z,100536
2018-11-23T13:43:07.449Z,100539
2018-11-23T13:45:36.283Z,100529
2018-11-23T13:48:05.133Z,100526
2018-11-23T13:50:33.979Z,100528
2018-11-23T13:53:02.819Z,100526
2018-11-23T13:55:31.657Z,100518
2018-11-23T13:58:01.302Z,100520
2018-11-23T14:00:29.350Z,100520
2018-11-23T14:02:58.930Z,100512
2018-11-23T14:05:27.761Z,100506
2018-11-23T14:07:56.617Z,100501
2018-11-23T14:10:25.470Z,100483
2018-11-23T14:12:54.296Z,100499
2018-11-23T14:15:23.127Z,100492
2018-11-23T14:17:51.959Z,100496
2018-11-23T14:20:20.788Z,100496
2018-11-23T14:22:50.366Z,100497
2018-11-23T14:25:19.790Z,100502
2018-11-23T14:27:49.362Z,100493
2018-11-23T14:30:18.196Z,100495
2018-11-23T14:32:47.764Z,100488
2018-11-23T14:35:16.596Z,100492
2018-11-23T14:37:45.433Z,100493
2018-11-23T14:40:14.325Z,100494
2018-11-23T14:42:43.174Z,100487
2018-11-23T14:45:12.014Z,100487
2018-11-23T14:47:40.862Z,100494
2018-11-23T14:50:09.698Z,100490
2018-11-23T14:52:38.542Z,100484
2018-11-23T14:55:07.378Z,100486
2018-11-23T14:57:36.231Z,100490
2018-11-23T15:00:05.064Z,100495
2018-11-23T15:02:33.893Z,100488
2018-11-23T15:05:02.729Z,100488
2018-11-23T15:07:31.569Z,100481
2018-11-23T15:10:00.417Z,100475
2018-11-23T15:12:29.282Z,100474
2018-11-23T15:14:58.119Z,100469
2018-11-23T15:17:26.951Z,100475
2018-11-23T15:19:55.776Z,100471
2018-11-23T15:22:25.367Z,100481
2018-11-23T15:24:54.205Z,100483
2018-11-23T15:27:23.037Z,100474
2018-11-23T15:29:51.872Z,100476
2018-11-23T15:32:20.712Z,100472
2018-11-23T15:34:49.546Z,100482
2018-11-23T15:37:18.377Z,100477
2018-11-23T15:39:47.220Z,100477
2018-11-23T15:42:16.788Z,100474
2018-11-23T15:44:45.618Z,100465
2018-11-23T15:47:14.478Z,100461
2018-11-23T15:49:44.046Z,100463
2018-11-23T15:52:12.879Z,100457
2018-11-23T15:54:42.464Z,100445
2018-11-23T15:57:11.286Z,100444
2018-11-23T15:59:40.873Z,100433
2018-11-23T16:02:10.451Z,100431
2018-11-23T16:04:39.707Z,100427
2018-11-23T16:07:08.873Z,100423
2018-11-23T16:12:41.667Z,100437
2018-11-23T16:15:24.284Z,100434
2018-11-23T16:17:53.130Z,100443
2018-11-23T16:20:21.966Z,100442
2018-11-23T16:22:51.542Z,100443
2018-11-23T16:25:20.379Z,100441
2018-11-23T16:27:49.963Z,100441
2018-11-23T16:30:19.553Z,100442
2018-11-23T16:32:48.372Z,100444
2018-11-23T16:35:17.260Z,100448
2018-11-23T16:37:46.064Z,100440
2018-11-23T16:40:14.894Z,100445
2018-11-23T16:42:43.745Z,100445
2018-11-23T16:45:12.591Z,100436
2018-11-23T16:47:41.451Z,100432
2018-11-23T16:50:10.303Z,100430
2018-11-23T16:52:39.881Z,100421
2018-11-23T16:55:08.779Z,100431
2018-11-23T16:57:37.573Z,100439
2018-11-23T17:00:07.158Z,100426
2018-11-23T17:02:35.988Z,100429
2018-11-23T17:05:04.824Z,100417
2018-11-23T17:07:33.650Z,100419
2018-11-23T17:10:03.226Z,100420
2018-11-23T17:12:32.084Z,100418
2018-11-23T17:15:00.928Z,100410
2018-11-23T17:17:30.602Z,100409
2018-11-23T17:19:59.432Z,100411
2018-11-23T17:22:28.269Z,100415
2018-11-23T17:24:57.096Z,100421
2018-11-23T17:27:25.933Z,100415
2018-11-23T17:29:54.749Z,100412
2018-11-23T17:32:23.589Z,100409
2018-11-23T17:34:53.164Z,100400
2018-11-23T17:37:21.995Z,100401
2018-11-23T17:39:50.846Z,100397
2018-11-23T17:42:19.682Z,100385
2018-11-23T17:44:48.528Z,100383
2018-11-23T17:47:17.353Z,100387
2018-11-23T17:49:46.194Z,100383
2018-11-23T17:52:15.016Z,100371
2018-11-23T17:54:44.589Z,100362
2018-11-23T17:57:13.426Z,100358
2018-11-23T17:59:42.262Z,100342
2018-11-23T18:02:11.096Z,100349
2018-11-23T18:04:39.939Z,100339
2018-11-23T18:07:08.765Z,100330
2018-11-23T18:09:37.627Z,100326
2018-11-23T18:12:06.458Z,100324
2018-11-23T18:14:35.273Z,100321
2018-11-23T18:17:04.114Z,100317
2018-11-23T18:19:32.942Z,100314
2018-11-23T18:22:01.809Z,100307
2018-11-23T18:24:30.603Z,100304
2018-11-23T18:26:59.458Z,100303
2018-11-23T18:29:28.279Z,100289
2018-11-23T18:31:57.122Z,100296
2018-11-23T18:34:25.957Z,100297
2018-11-23T18:36:54.799Z,100299
2018-11-23T18:39:24.388Z,100298
2018-11-23T18:41:53.220Z,100289
2018-11-23T18:44:22.052Z,100281
2018-11-23T18:46:50.893Z,100284
2018-11-23T18:49:19.729Z,100294
2018-11-23T18:51:48.559Z,100306
2018-11-23T18:54:17.992Z,100300
2018-11-23T18:56:46.855Z,100303
2018-11-23T18:59:15.699Z,100303
2018-11-23T19:01:44.542Z,100305
2018-11-23T19:04:13.387Z,100313
2018-11-23T19:06:42.213Z,100322
2018-11-23T19:09:11.048Z,100330
2018-11-23T19:11:39.886Z,100325
2018-11-23T19:14:09.471Z,100337
2018-11-23T19:16:38.346Z,100326
2018-11-23T19:19:12.793Z,100315
2018-11-23T19:21:41.628Z,100306
2018-11-23T19:24:10.621Z,100285
2018-11-23T19:26:39.423Z,100289
2018-11-23T19:29:08.279Z,100280
2018-11-23T19:31:37.104Z,100274
2018-11-23T19:34:05.997Z,100273
2018-11-23T19:36:35.571Z,100260
2018-11-23T19:39:04.440Z,100271
2018-11-23T19:41:33.268Z,100267
2018-11-23T19:44:02.847Z,100258
2018-11-23T19:46:31.738Z,100258
2018-11-23T19:49:00.625Z,100255
2018-11-23T19:51:29.423Z,100257
2018-11-23T19:53:58.267Z,100253
2018-11-23T19:56:27.118Z,100249
2018-11-23T19:58:56.004Z,100238
2018-11-23T20:01:24.832Z,100241
2018-11-23T20:03:53.681Z,100237
2018-11-23T20:06:22.531Z,100246
2018-11-23T20:08:51.423Z,100250
2018-11-23T20:11:20.219Z,100257
2018-11-23T20:13:49.147Z,100251
2018-11-23T20:16:19.091Z,100251
2018-11-23T20:18:47.922Z,100235
2018-11-23T20:21:16.750Z,100240
2018-11-23T20:23:46.008Z,100233
2018-11-23T20:26:15.706Z,100233
2018-11-23T20:28:44.540Z,100224
2018-11-23T20:31:14.117Z,100219
2018-11-23T20:33:42.969Z,100236
2018-11-23T20:36:11.824Z,100230
2018-11-23T20:38:40.683Z,100227
2018-11-23T20:41:09.517Z,100225
2018-11-23T20:43:38.359Z,100223
2018-11-23T20:46:07.197Z,100227
2018-11-23T20:48:36.053Z,100222
2018-11-23T20:51:04.890Z,100229
2018-11-23T20:53:33.752Z,100232
2018-11-23T20:56:03.327Z,100222
2018-11-23T20:58:32.424Z,100215
2018-11-23T21:01:01.272Z,100212
2018-11-23T21:03:30.123Z,100213
2018-11-23T21:05:59.001Z,100214
2018-11-23T21:08:27.849Z,100215
2018-11-23T21:10:56.710Z,100213
2018-11-23T21:13:25.557Z,100211
2018-11-23T21:15:54.997Z,100211
2018-11-23T21:18:23.848Z,100202
2018-11-23T21:20:52.693Z,100195
2018-11-23T21:23:21.557Z,100188
2018-11-23T21:25:50.413Z,100193
2018-11-23T21:28:19.242Z,100188
2018-11-23T21:30:48.082Z,100184
2018-11-23T21:33:16.938Z,100176
2018-11-23T21:35:45.770Z,100172
2018-11-23T21:38:14.627Z,100170
2018-11-23T21:40:44.398Z,100165
2018-11-23T21:43:12.303Z,100158
2018-11-23T21:45:41.157Z,100158
2018-11-23T21:48:09.996Z,100154
2018-11-23T21:50:38.841Z,100144
2018-11-23T21:53:08.439Z,100140
2018-11-23T21:55:37.282Z,100136
2018-11-23T21:58:06.130Z,100136
2018-11-23T22:00:35.721Z,100125
2018-11-23T22:03:04.561Z,100120
2018-11-23T22:05:33.400Z,100118
2018-11-23T22:08:02.252Z,100132
2018-11-23T22:10:31.090Z,100127
2018-11-23T22:13:00.664Z,100129
2018-11-23T22:15:29.498Z,100119
2018-11-23T22:17:58.370Z,100120
2018-11-23T22:20:27.238Z,100117
2018-11-23T22:22:56.061Z,100117
2018-11-23T22:25:24.922Z,100113
2018-11-23T22:27:53.746Z,100115
2018-11-23T22:30:22.597Z,100104
2018-11-23T22:32:51.412Z,100103
2018-11-23T22:35:20.255Z,100100
2018-11-23T22:37:49.089Z,100093
2018-11-23T22:40:18.148Z,100082
2018-11-23T22:42:46.787Z,100081
2018-11-23T22:45:15.606Z,100078
2018-11-23T22:47:44.430Z,100068
2018-11-23T22:50:14.009Z,100081
2018-11-23T22:52:42.853Z,100060
2018-11-23T22:55:11.684Z,100066
2018-11-23T22:57:40.541Z,100076
2018-11-23T23:00:09.381Z,100065
2018-11-23T23:02:38.216Z,100059
2018-11-23T23:05:07.073Z,100064
2018-11-23T23:07:35.923Z,100063
2018-11-23T23:10:04.781Z,100070
2018-11-23T23:12:33.619Z,100064
2018-11-23T23:15:02.444Z,100067
2018-11-23T23:17:31.281Z,100079
2018-11-23T23:20:00.115Z,100077
2018-11-23T23:22:28.940Z,100079
2018-11-23T23:24:57.783Z,100070
2018-11-23T23:27:26.632Z,100068
2018-11-23T23:29:55.463Z,100078
2018-11-23T23:32:25.040Z,100064
2018-11-23T23:34:53.882Z,100064
2018-11-23T23:37:22.718Z,100069
2018-11-23T23:39:51.561Z,100076
2018-11-23T23:42:20.390Z,100083
2018-11-23T23:44:49.220Z,100089
2018-11-23T23:47:18.067Z,100080
2018-11-23T23:49:46.904Z,100075
2018-11-23T23:52:15.782Z,100064
2018-11-23T23:54:44.615Z,100068
2018-11-23T23:57:13.448Z,100068
2018-11-23T23:59:42.280Z,100058
